Time;durP1;ratioP1;P1;durP2;ratioP2;P2;SDS_P1;SDS_P2;PMS_P1;PMS_P2;Temp;Humidity;BMP_temperature;BMP_pressure;BME280_temperature;BME280_humidity;BME280_pressure;Samples;Min_cycle;Max_cycle;Signal;HPM_P1;HPM_P2
2024/01/15 00:00:12;;;;;;;;;;;;;;;1.21;58.40;98743.66;4409253;32;20164;-91
2024/01/15 00:02:41;;;;;;;51.47;35.85;;;;;;;1.37;58.18;98725.47;4407842;32;20393;-90
2024/01/15 00:05:10;;;;;;;52.78;35.03;;;;;;;1.27;58.85;98729.44;4407999;32;20141;-91
2024/01/15 00:07:39;;;;;;;55.10;33.20;;;;;;;1.39;58.59;98718.41;4393985;32;20184;-91
2024/01/15 00:10:09;;;;;;;53.60;34.80;;;;;;;1.28;58.89;98705.91;4393813;32;20148;-91
2024/01/15 00:12:39;;;;;;;52.62;32.17;;;;;;;1.49;58.65;98703.97;4408095;32;20153;-91
2024/01/15 00:15:10;;;;;;;50.10;31.50;;;;;;;1.50;58.67;98704.81;4408515;32;20191;-91
2024/01/15 00:17:39;;;;;;;49.50;33.25;;;;;;;1.61;58.60;98686.81;4407925;32;20161;-91
2024/01/15 00:20:09;;;;;;;55.08;33.00;;;;;;;1.59;58.50;98684.31;4408294;32;20149;-91
2024/01/15 00:22:38;;;;;;;50.08;32.88;;;;;;;1.76;57.96;98669.50;4407807;32;20161;-91
2024/01/15 00:25:08;;;;;;;48.97;30.27;;;;;;;1.64;58.18;98666.63;4408286;32;20169;-91
2024/01/15 00:27:37;;;;;;;48.17;28.45;;;;;;;1.66;58.12;98662.19;4408375;32;20176;-91
2024/01/15 00:30:07;;;;;;;44.85;29.40;;;;;;;1.79;57.78;98653.69;4408657;32;20192;-91
2024/01/15 00:32:39;;;;;;;43.28;31.23;;;;;;;1.64;57.92;98650.13;4408450;32;20165;-91
2024/01/15 00:35:09;;;;;;;44.65;29.37;;;;;;;1.71;57.86;98643.66;4408173;32;20141;-91
2024/01/15 00:37:39;;;;;;;57.97;35.05;;;;;;;1.66;58.05;98641.28;4407971;32;20168;-91
2024/01/15 00:40:09;;;;;;;50.12;34.17;;;;;;;1.92;57.54;98636.41;4408522;32;20169;-91
2024/01/15 00:42:38;;;;;;;49.85;30.50;;;;;;;1.88;57.21;98640.97;4407810;32;20447;-91
2024/01/15 00:45:08;;;;;;;50.90;34.60;;;;;;;1.77;57.98;98645.91;4408546;32;20145;-91
2024/01/15 00:47:46;;;;;;;57.30;34.10;;;;;;;1.70;58.08;98639.31;4408078;32;20141;-91
2024/01/15 00:50:15;;;;;;;60.50;38.10;;;;;;;1.61;58.41;98640.66;4407759;32;20165;-91
2024/01/15 00:52:45;;;;;;;63.72;39.35;;;;;;;1.22;59.14;98628.75;4408799;32;20142;-91
2024/01/15 00:55:14;;;;;;;54.47;34.72;;;;;;;1.54;58.32;98631.47;4408213;32;20148;-91
2024/01/15 00:57:43;;;;;;;52.00;33.53;;;;;;;1.63;57.85;98645.81;4408186;32;20216;-91
2024/01/15 01:00:13;;;;;;;58.40;33.30;;;;;;;1.65;57.99;98636.13;4408738;32;20184;-91
2024/01/15 01:02:42;;;;;;;58.65;33.88;;;;;;;1.76;57.75;98630.34;4408105;32;20184;-91
2024/01/15 01:05:14;;;;;;;54.28;34.40;;;;;;;1.65;57.87;98633.50;4408185;32;20168;-91
2024/01/15 01:07:43;;;;;;;56.00;37.35;;;;;;;1.70;57.66;98634.09;4408546;32;20157;-91
2024/01/15 01:10:13;;;;;;;51.85;34.30;;;;;;;1.53;58.15;98637.63;4394101;32;20133;-91
2024/01/15 01:12:42;;;;;;;58.10;36.70;;;;;;;1.64;57.92;98630.06;4408118;32;20527;-91
2024/01/15 01:15:11;;;;;;;53.08;35.50;;;;;;;1.64;57.74;98634.44;4408625;32;20170;-91
2024/01/15 01:17:41;;;;;;;53.83;35.67;;;;;;;1.65;57.56;98621.28;4408278;32;20165;-91
2024/01/15 01:20:11;;;;;;;54.40;36.67;;;;;;;1.64;57.46;98624.00;4408169;32;20165;-92
2024/01/15 01:22:44;;;;;;;;;;;;;;;1.51;57.88;98623.81;4408757;32;20152;-91
2024/01/15 01:25:13;;;;;;;54.42;34.28;;;;;;;1.44;58.06;98614.63;4408341;32;20020;-91
2024/01/15 01:27:43;;;;;;;56.63;37.22;;;;;;;1.44;58.02;98614.63;4408195;32;20208;-91
2024/01/15 01:30:12;;;;;;;56.50;38.85;;;;;;;1.33;58.32;98603.88;4408565;32;20156;-91
2024/01/15 01:32:41;;;;;;;58.05;38.53;;;;;;;1.27;58.55;98594.62;4408404;32;20164;-91
2024/01/15 01:35:11;;;;;;;52.30;37.08;;;;;;;1.01;59.32;98602.94;4408222;32;20169;-91
2024/01/15 01:37:40;;;;;;;55.05;37.63;;;;;;;1.23;58.65;98598.31;4408205;32;20556;-91
2024/01/15 01:40:11;;;;;;;59.22;37.72;;;;;;;1.28;58.52;98591.09;4408202;32;20431;-91
2024/01/15 01:42:41;;;;;;;58.40;36.92;;;;;;;0.90;59.54;98587.84;4408138;32;20156;-92
2024/01/15 01:45:10;;;;;;;57.50;38.08;;;;;;;0.97;59.51;98582.22;4408755;32;20141;-91
2024/01/15 01:47:41;;;;;;;59.72;36.85;;;;;;;1.16;59.05;98579.53;4394314;32;20165;-91
2024/01/15 01:50:10;;;;;;;57.28;40.97;;;;;;;1.17;58.82;98578.59;4408234;32;20452;-91
2024/01/15 01:52:42;;;;;;;56.88;39.22;;;;;;;1.13;58.73;98564.03;4408018;32;20145;-92
2024/01/15 01:55:13;;;;;;;64.50;40.30;;;;;;;1.12;58.79;98571.94;4408419;32;20145;-91
2024/01/15 01:57:44;;;;;;;62.08;38.83;;;;;;;0.82;59.58;98556.09;4407759;32;20237;-91
2024/01/15 02:00:19;;;;;;;54.88;36.17;;;;;;;1.01;58.97;98567.28;4408586;32;20159;-91
2024/01/15 02:02:49;;;;;;;59.55;40.12;;;;;;;1.16;58.26;98563.88;4408082;32;20534;-91
2024/01/15 02:05:21;;;;;;;64.97;38.58;;;;;;;1.22;57.70;98555.69;4408156;32;20157;-92
2024/01/15 02:07:51;;;;;;;57.40;38.40;;;;;;;0.90;58.65;98546.94;4408420;32;20136;-92
2024/01/15 02:10:22;;;;;;;62.78;39.33;;;;;;;1.00;58.12;98543.88;4408635;32;20516;-92
2024/01/15 02:12:52;;;;;;;55.50;37.88;;;;;;;0.62;59.29;98542.31;4407788;32;20513;-91
2024/01/15 02:15:21;;;;;;;58.87;37.88;;;;;;;0.84;58.82;98556.88;4395242;32;20157;-91
2024/01/15 02:18:01;;;;;;;64.30;39.83;;;;;;;0.66;59.24;98551.66;4407876;32;20489;-91
2024/01/15 02:20:31;;;;;;;63.40;41.13;;;;;;;0.98;58.20;98557.00;4408174;32;20140;-91
2024/01/15 02:23:12;;;;;;;61.00;42.10;;;;;;;0.54;59.48;98546.22;4408159;32;20153;-92
2024/01/15 02:25:44;;;;;;;64.12;41.40;;;;;;;0.43;59.74;98533.72;4408591;32;20157;-92
2024/01/15 02:28:16;;;;;;;65.20;42.22;;;;;;;0.26;60.16;98537.16;4409695;32;20133;-91
2024/01/15 02:30:45;;;;;;;61.03;41.05;;;;;;;0.54;59.34;98531.44;4410406;32;20156;-92
2024/01/15 02:33:15;;;;;;;63.90;42.33;;;;;;;0.52;59.08;98530.69;4410599;32;20164;-92
2024/01/15 02:35:46;;;;;;;62.65;43.03;;;;;;;0.41;59.19;98531.19;4410735;32;20433;-92
2024/01/15 02:38:20;;;;;;;70.50;44.42;;;;;;;0.41;59.27;98525.16;4409974;32;20171;-92
2024/01/15 02:40:51;;;;;;;57.62;39.90;;;;;;;0.74;58.30;98510.41;4410253;32;20783;-91
2024/01/15 02:43:20;;;;;;;69.12;44.10;;;;;;;0.48;58.87;98510.91;4410356;32;20144;-91
2024/01/15 02:45:51;;;;;;;59.80;43.95;;;;;;;0.16;59.82;98504.66;4410103;32;20145;-92
2024/01/15 02:48:20;;;;;;;72.07;41.42;;;;;;;0.32;59.50;98495.19;4396901;32;20161;-91
2024/01/15 02:50:50;;;;;;;67.00;41.17;;;;;;;0.20;59.95;98512.28;4396437;32;20233;-91
2024/01/15 02:53:20;;;;;;;67.15;42.25;;;;;;;0.24;59.13;98534.66;4410058;32;20541;-92
2024/01/15 02:55:50;;;;;;;70.78;42.85;;;;;;;0.26;59.08;98531.97;4410555;32;20141;-92
2024/01/15 02:58:23;;;;;;;;;;;;;;;0.26;59.08;98518.09;4410600;32;20129;-92
2024/01/15 03:00:52;;;;;;;57.30;38.92;;;;;;;0.15;59.28;98514.25;4410216;32;20025;-92
2024/01/15 03:03:21;;;;;;;49.63;34.50;;;;;;;-0.10;60.17;98513.75;4411130;32;20132;-92
2024/01/15 03:05:51;;;;;;;51.70;34.88;;;;;;;-0.15;60.60;98511.38;4410015;32;20161;-92
2024/01/15 03:08:22;;;;;;;56.17;36.42;;;;;;;-0.08;60.09;98501.50;4410126;32;20140;-92
2024/01/15 03:10:51;;;;;;;52.72;35.72;;;;;;;-0.13;60.17;98495.69;4410159;32;20149;-92
2024/01/15 03:13:21;;;;;;;49.08;32.63;;;;;;;-0.12;60.21;98487.81;4396488;32;20160;-92
2024/01/15 03:15:53;;;;;;;57.65;37.30;;;;;;;-0.21;60.39;98490.00;4410196;32;20481;-92
2024/01/15 03:18:22;;;;;;;56.97;38.58;;;;;;;-0.06;60.12;98478.84;4410747;32;20141;-93
2024/01/15 03:20:52;;;;;;;54.78;39.28;;;;;;;-0.61;62.04;98477.13;4410712;32;20143;-92
2024/01/15 03:23:23;;;;;;;64.62;41.88;;;;;;;-0.30;61.35;98473.91;4410530;32;20152;-92
2024/01/15 03:25:52;;;;;;;58.28;38.45;;;;;;;-0.76;62.47;98475.22;4410250;32;20781;-93
2024/01/15 03:28:21;;;;;;;56.95;35.45;;;;;;;-0.44;61.72;98459.84;4396678;32;20141;-92
2024/01/15 03:30:50;;;;;;;52.45;36.05;;;;;;;-0.41;61.13;98457.97;4410166;32;20452;-93
2024/01/15 03:33:20;;;;;;;55.67;38.00;;;;;;;-0.11;60.14;98467.81;4410668;32;20150;-93
2024/01/15 03:35:49;;;;;;;52.85;35.15;;;;;;;-0.54;61.29;98462.91;4410019;32;20161;-93
2024/01/15 03:38:18;;;;;;;74.15;43.45;;;;;;;-0.81;62.47;98501.44;4395821;32;20165;-92
2024/01/15 03:40:49;;;;;;;56.25;37.97;;;;;;;-1.05;63.38;98487.78;4396209;32;20165;-93
2024/01/15 03:43:19;;;;;;;55.50;36.25;;;;;;;-0.78;62.69;98475.28;4396745;32;20427;-93
2024/01/15 03:45:48;;;;;;;61.28;35.97;;;;;;;-0.52;61.98;98481.88;4410279;32;20155;-93
2024/01/15 03:48:18;;;;;;;53.78;36.33;;;;;;;-0.51;61.85;98491.37;4410675;32;20168;-93
2024/01/15 03:50:51;;;;;;;56.63;36.72;;;;;;;-0.70;62.49;98518.31;4410535;32;20145;-93
2024/01/15 03:53:21;;;;;;;53.65;34.88;;;;;;;-0.83;63.04;98502.41;4410264;32;20433;-93
2024/01/15 03:55:51;;;;;;;59.92;37.47;;;;;;;-0.80;62.94;98492.72;4410235;32;20721;-92
2024/01/15 03:58:21;;;;;;;59.03;37.83;;;;;;;-0.73;62.61;98495.03;4396590;32;20149;-92
2024/01/15 04:00:50;;;;;;;56.20;38.00;;;;;;;-0.71;62.47;98511.41;4396466;32;20149;-92
2024/01/15 04:03:28;;;;;;;58.08;38.53;;;;;;;-0.71;62.43;98519.22;4395871;32;20130;-93
2024/01/15 04:05:57;;;;;;;57.38;36.53;;;;;;;-1.12;63.64;98503.72;4395692;32;20145;-93
2024/01/15 04:08:27;;;;;;;57.78;36.72;;;;;;;-0.84;62.90;98491.16;4394742;32;20522;-93
2024/01/15 04:10:57;;;;;;;63.17;38.33;;;;;;;-0.82;62.92;98486.75;4395063;32;20133;-93
2024/01/15 04:13:27;;;;;;;56.67;37.88;;;;;;;-0.83;62.87;98466.00;4401421;32;20148;-93
2024/01/15 04:15:57;;;;;;;55.75;37.88;;;;;;;-0.95;62.60;98476.97;4396432;32;20137;-92
2024/01/15 04:18:26;;;;;;;57.72;39.42;;;;;;;-0.97;62.71;98461.44;4410139;32;20405;-92
2024/01/15 04:20:56;;;;;;;52.38;36.85;;;;;;;-1.08;63.07;98467.13;4410555;32;20128;-92
2024/01/15 04:23:25;;;;;;;60.15;39.00;;;;;;;-0.84;61.93;98461.72;4409811;32;20157;-92
2024/01/15 04:25:54;;;;;;;55.85;37.63;;;;;;;-0.97;62.00;98465.81;4396487;32;20157;-93
2024/01/15 04:28:25;;;;;;;61.05;39.50;;;;;;;-0.82;61.53;98465.12;4409626;32;20493;-92
2024/01/15 04:30:54;;;;;;;61.15;36.60;;;;;;;-1.07;62.00;98474.03;4410065;32;20141;-93
2024/01/15 04:33:24;;;;;;;62.60;41.45;;;;;;;-1.30;62.39;98464.66;4409542;32;20140;-93
2024/01/15 04:35:53;;;;;;;66.22;43.50;;;;;;;-1.17;62.59;98466.72;4410058;32;20156;-93
2024/01/15 04:38:22;;;;;;;62.83;41.35;;;;;;;-1.30;63.51;98453.41;4409646;32;20136;-93
2024/01/15 04:40:52;;;;;;;61.08;41.63;;;;;;;-0.88;61.98;98436.78;4409535;32;20133;-93
2024/01/15 04:43:27;;;;;;;63.38;41.33;;;;;;;-0.96;62.33;98447.53;4395580;32;20436;-93
2024/01/15 04:45:56;;;;;;;57.45;40.47;;;;;;;-0.84;62.13;98446.97;4396511;32;20145;-92
2024/01/15 04:48:26;;;;;;;58.60;39.08;;;;;;;-0.84;61.95;98433.97;4409578;32;20149;-93
2024/01/15 04:50:55;;;;;;;62.60;39.80;;;;;;;-0.80;61.89;98453.69;4409975;32;20140;-93
2024/01/15 04:53:25;;;;;;;52.35;37.42;;;;;;;-0.61;61.00;98453.69;4409892;32;20141;-93
2024/01/15 04:55:54;;;;;;;68.55;41.60;;;;;;;-0.80;61.04;98451.09;4396123;32;20149;-93
2024/01/15 04:58:25;;;;;;;57.20;39.53;;;;;;;-1.02;62.31;98461.66;4409603;32;20143;-92
2024/01/15 05:00:56;;;;;;;57.47;39.58;;;;;;;-1.07;62.22;98463.63;4409520;32;20156;-92
2024/01/15 05:03:26;;;;;;;60.22;43.10;;;;;;;-0.98;61.93;98470.16;4409704;32;20172;-93
2024/01/15 05:05:56;;;;;;;61.80;43.53;;;;;;;-1.27;62.58;98461.94;4410260;32;20125;-93
2024/01/15 05:08:25;;;;;;;67.60;42.33;;;;;;;-1.07;62.13;98462.75;4409862;32;20141;-93
2024/01/15 05:10:54;;;;;;;63.85;41.85;;;;;;;-0.88;61.51;98470.59;4409996;32;20145;-93
2024/01/15 05:13:23;;;;;;;63.38;40.58;;;;;;;-0.98;61.73;98471.94;4395903;32;20157;-93
2024/01/15 05:15:53;;;;;;;66.30;42.58;;;;;;;-1.30;62.87;98474.22;4409987;32;20439;-93
2024/01/15 05:18:23;;;;;;;62.60;42.75;;;;;;;-1.30;62.49;98469.00;4410083;32;20424;-93
2024/01/15 05:20:53;;;;;;;61.33;41.83;;;;;;;-1.79;64.28;98466.75;4410140;32;20125;-93
2024/01/15 05:23:22;;;;;;;65.62;41.35;;;;;;;-1.61;63.48;98465.12;4409836;32;20137;-93
2024/01/15 05:25:51;;;;;;;65.70;43.15;;;;;;;-1.63;63.73;98464.34;4409823;32;20157;-93
2024/01/15 05:28:21;;;;;;;59.10;38.28;;;;;;;-1.82;64.55;98458.25;4395565;32;20153;-93
2024/01/15 05:30:52;;;;;;;64.57;43.03;;;;;;;-1.63;64.67;98466.94;4409610;32;20149;-93
2024/01/15 05:33:25;;;;;;;60.10;43.60;;;;;;;-2.12;66.46;98470.75;4409906;32;20791;-93
2024/01/15 05:35:54;;;;;;;70.20;44.42;;;;;;;-1.70;64.93;98475.06;4394997;32;20120;-93
2024/01/15 05:38:24;;;;;;;59.03;41.05;;;;;;;-2.06;66.39;98470.50;4396140;32;20140;-93
2024/01/15 05:40:53;;;;;;;71.07;45.17;;;;;;;-1.59;65.18;98465.06;4409746;32;20133;-92
2024/01/15 05:43:25;;;;;;;68.30;43.47;;;;;;;-1.38;63.96;98471.09;4409558;32;20148;-92
2024/01/15 05:45:54;;;;;;;72.55;45.45;;;;;;;-1.27;63.23;98469.72;4409852;32;20148;-91
2024/01/15 05:48:26;;;;;;;58.13;42.03;;;;;;;-1.47;63.54;98474.91;4409843;32;20144;-92
2024/01/15 05:50:55;;;;;;;66.75;45.15;;;;;;;-1.25;62.96;98487.84;4396415;32;20165;-92
2024/01/15 05:53:24;;;;;;;77.30;45.88;;;;;;;-1.28;63.09;98478.41;4409760;32;20145;-92
2024/01/15 05:55:54;;;;;;;64.90;45.28;;;;;;;-1.49;63.71;98482.78;4395982;32;20153;-92
2024/01/15 05:58:23;;;;;;;73.20;46.58;;;;;;;-1.66;64.64;98477.47;4409688;32;20502;-92
2024/01/15 06:00:52;;;;;;;65.50;46.75;;;;;;;-1.52;64.11;98463.88;4409250;32;20141;-92
2024/01/15 06:03:22;;;;;;;75.80;49.08;;;;;;;-1.42;63.84;98457.41;4409713;32;20410;-92
2024/01/15 06:05:52;;;;;;;66.57;46.53;;;;;;;-1.32;63.51;98457.81;4409348;32;20177;-92
2024/01/15 06:08:22;;;;;;;74.15;45.53;;;;;;;-1.30;63.42;98459.47;4395809;32;20161;-92
2024/01/15 06:10:51;;;;;;;69.05;43.67;;;;;;;-1.13;63.00;98460.47;4409683;32;20172;-92
2024/01/15 06:13:20;;;;;;;71.37;46.47;;;;;;;-1.19;63.05;98461.56;4409370;32;20161;-92
2024/01/15 06:15:49;;;;;;;72.57;47.53;;;;;;;-0.74;61.75;98455.19;4409304;32;20149;-92
2024/01/15 06:18:18;;;;;;;72.85;47.22;;;;;;;-1.05;62.83;98464.38;4409885;32;20133;-92
2024/01/15 06:20:47;;;;;;;89.25;49.35;;;;;;;-1.10;63.35;98476.75;4408638;32;20137;-92
2024/01/15 06:23:18;;;;;;;75.30;44.92;;;;;;;-1.40;64.71;98476.34;4409167;32;20141;-93
2024/01/15 06:25:49;;;;;;;;;;;;;;;-1.36;64.83;98480.50;4409491;32;20722;-92
2024/01/15 06:28:18;;;;;;;66.62;46.88;;;;;;;-0.82;63.65;98475.50;4409002;32;20016;-92
2024/01/15 06:30:47;;;;;;;70.18;46.13;;;;;;;-0.81;63.81;98467.63;4409342;32;20157;-93
2024/01/15 06:33:17;;;;;;;67.75;48.70;;;;;;;-0.91;64.03;98470.72;4409366;32;20158;-92
2024/01/15 06:35:47;;;;;;;75.00;48.95;;;;;;;-0.56;63.41;98469.91;4408876;32;20149;-92
2024/01/15 06:38:17;;;;;;;82.30;52.70;;;;;;;-0.66;63.62;98475.66;4408976;32;20141;-92
2024/01/15 06:40:48;;;;;;;70.25;48.38;;;;;;;-1.00;64.35;98474.56;4409788;32;20486;-93
2024/01/15 06:43:21;;;;;;;66.82;47.33;;;;;;;-0.76;64.17;98483.84;4395207;32;20168;-93
2024/01/15 06:45:51;;;;;;;74.53;50.03;;;;;;;-0.71;63.94;98488.00;4395340;32;20144;-93
2024/01/15 06:48:20;;;;;;;69.97;46.53;;;;;;;-0.57;63.84;98477.81;4409525;32;20133;-93
2024/01/15 06:50:50;;;;;;;71.07;45.92;;;;;;;-0.54;63.77;98469.87;4380126;32;20150;-93
2024/01/15 06:53:21;;;;;;;66.68;48.45;;;;;;;-0.36;63.50;98481.16;4393730;32;20142;-93
2024/01/15 06:55:51;;;;;;;73.32;45.28;;;;;;;-0.39;63.51;98476.13;4393947;32;20169;-93
2024/01/15 06:58:20;;;;;;;70.07;49.45;;;;;;;-0.33;63.37;98486.22;4393544;32;20153;-93
2024/01/15 07:00:55;;;;;;;78.53;53.70;;;;;;;-0.15;62.78;98487.94;4393612;32;20129;-93
2024/01/15 07:03:24;;;;;;;78.60;48.95;;;;;;;-0.34;63.31;98484.53;4380257;32;20141;-93
2024/01/15 07:05:53;;;;;;;82.80;51.92;;;;;;;-0.22;63.09;98483.13;4380269;32;20145;-93
2024/01/15 07:08:30;;;;;;;68.28;48.17;;;;;;;0.03;62.91;98474.94;4393399;32;20151;-93
2024/01/15 07:11:05;;;;;;;63.75;48.60;;;;;;;0.63;62.11;98483.19;4394074;32;20145;-93
2024/01/15 07:13:37;;;;;;;73.28;45.90;;;;;;;0.99;59.70;98472.62;4380992;32;20152;-93
2024/01/15 07:16:07;;;;;;;69.70;46.10;;;;;;;1.57;58.80;98469.44;4395725;32;20506;-93
2024/01/15 07:18:39;;;;;;;80.43;53.85;;;;;;;1.90;57.30;98476.31;4397705;32;20169;-94
2024/01/15 07:21:29;;;;;;;72.82;48.03;;;;;;;2.10;56.66;98486.50;4397018;32;20153;-94
2024/01/15 07:24:00;;;;;;;69.35;49.58;;;;;;;2.13;55.66;98488.91;4396108;32;20129;-94
2024/01/15 07:26:32;;;;;;;73.18;49.78;;;;;;;1.63;56.78;98497.84;4395698;32;20165;-93
2024/01/15 07:29:01;;;;;;;72.43;48.20;;;;;;;1.46;57.20;98497.91;4395581;32;20161;-92
2024/01/15 07:31:37;;;;;;;69.28;44.20;;;;;;;1.38;57.53;98495.72;4382334;32;20145;-93
2024/01/15 07:34:07;;;;;;;86.35;47.75;;;;;;;1.22;57.92;98498.31;4395646;32;20149;-94
2024/01/15 07:36:36;;;;;;;65.37;42.55;;;;;;;1.22;57.92;98493.09;4395655;32;20168;-94
2024/01/15 07:39:08;;;;;;;65.37;44.03;;;;;;;1.26;58.01;98501.59;4396470;32;20133;-93
2024/01/15 07:41:38;;;;;;;68.18;46.03;;;;;;;1.04;58.85;98504.53;4381642;32;20145;-93
2024/01/15 07:44:08;;;;;;;64.00;42.20;;;;;;;1.05;58.80;98505.34;4396190;32;20414;-94
2024/01/15 07:46:39;;;;;;;76.37;46.58;;;;;;;1.00;58.78;98509.97;4395703;32;20145;-94
2024/01/15 07:49:09;;;;;;;69.93;44.30;;;;;;;0.91;59.04;98506.06;4382552;32;20141;-94
2024/01/15 07:51:40;;;;;;;66.10;43.53;;;;;;;0.96;59.09;98499.69;4395732;32;20226;-94
2024/01/15 07:54:12;;;;;;;70.78;47.62;;;;;;;0.95;59.09;98495.41;4395960;32;20149;-95
2024/01/15 07:56:57;;;;;;;72.27;47.07;;;;;;;0.95;59.05;98492.81;4395512;32;20148;-94
2024/01/15 07:59:27;;;;;;;71.87;43.65;;;;;;;0.75;59.87;98498.19;4395329;32;20218;-94
2024/01/15 08:01:56;;;;;;;62.22;40.90;;;;;;;1.08;59.19;98497.38;4381708;32;20157;-94
2024/01/15 08:04:26;;;;;;;60.72;39.97;;;;;;;1.18;59.79;98491.56;4395404;32;20510;-92
2024/01/15 08:06:56;;;;;;;64.12;40.78;;;;;;;1.64;60.13;98498.69;4381196;32;20149;-92
2024/01/15 08:09:30;;;;;;;56.15;38.10;;;;;;;2.57;58.90;98490.69;4395479;32;20161;-92
2024/01/15 08:11:59;;;;;;;59.60;38.80;;;;;;;3.58;56.05;98502.84;4396109;32;20134;-92
2024/01/15 08:14:29;;;;;;;53.75;36.92;;;;;;;4.56;53.65;98486.00;4394947;32;20161;-93
2024/01/15 08:16:58;;;;;;;50.00;35.28;;;;;;;5.39;51.34;98498.69;4395749;32;20449;-93
2024/01/15 08:19:28;;;;;;;46.88;31.58;;;;;;;6.30;48.70;98488.59;4394891;32;20162;-93
2024/01/15 08:22:04;;;;;;;46.95;31.23;;;;;;;7.32;45.46;98494.84;4381615;32;20186;-93
2024/01/15 08:24:45;;;;;;;44.97;30.67;;;;;;;7.93;43.84;98479.44;4394283;32;20157;-92
2024/01/15 08:27:15;;;;;;;48.85;31.98;;;;;;;8.47;42.08;98478.53;4381849;32;20169;-93
2024/01/15 08:29:51;;;;;;;45.10;32.03;;;;;;;8.67;41.05;98486.59;4380543;32;20138;-92
2024/01/15 08:32:23;;;;;;;40.65;28.40;;;;;;;9.21;39.84;98474.94;4394138;32;20212;-92
2024/01/15 08:34:53;;;;;;;42.00;30.00;;;;;;;9.91;38.67;98474.06;4393598;32;20165;-92
2024/01/15 08:37:22;;;;;;;41.00;29.67;;;;;;;10.26;37.96;98475.38;4392696;32;20435;-91
2024/01/15 08:39:53;;;;;;;40.08;29.63;;;;;;;10.45;37.71;98470.09;4392757;32;20157;-90
2024/01/15 08:42:23;;;;;;;36.50;27.27;;;;;;;10.55;37.30;98470.88;4393003;32;20176;-90
2024/01/15 08:44:52;;;;;;;35.75;26.08;;;;;;;10.82;36.38;98469.31;4393162;32;20154;-91
2024/01/15 08:47:25;;;;;;;34.08;26.58;;;;;;;11.29;35.37;98472.81;4392430;32;20506;-91
2024/01/15 08:49:55;;;;;;;32.28;24.92;;;;;;;11.51;35.28;98462.78;4392934;32;20153;-90
2024/01/15 08:52:24;;;;;;;37.10;25.52;;;;;;;11.48;34.94;98479.84;4392200;32;20149;-91
2024/01/15 08:54:55;;;;;;;34.50;26.77;;;;;;;12.05;34.43;98482.34;4391931;32;20150;-91
2024/01/15 08:57:28;;;;;;;33.47;25.98;;;;;;;12.16;33.85;98471.53;4391680;32;20232;-91
2024/01/15 09:00:00;;;;;;;33.92;25.98;;;;;;;12.60;33.68;98476.87;4392089;32;20156;-90
2024/01/15 09:02:32;;;;;;;34.03;25.05;;;;;;;12.90;32.95;98474.75;4392212;32;20172;-91
2024/01/15 09:05:09;;;;;;;34.00;25.67;;;;;;;13.01;32.41;98475.34;4392385;32;20149;-91
2024/01/15 09:07:39;;;;;;;33.53;24.17;;;;;;;12.93;32.67;98480.59;4392320;32;20173;-91
2024/01/15 09:10:13;;;;;;;35.08;24.52;;;;;;;13.20;32.07;98479.63;4392884;32;20156;-91
2024/01/15 09:12:42;;;;;;;36.28;26.85;;;;;;;13.40;31.78;98474.94;4393060;32;20165;-92
2024/01/15 09:15:12;;;;;;;57.65;36.95;;;;;;;13.23;31.78;98482.00;4393574;32;20134;-92
2024/01/15 09:17:42;;;;;;;41.25;28.48;;;;;;;12.97;32.08;98468.66;4393561;32;20495;-92
2024/01/15 09:22:48;;;;;;;35.38;24.48;;;;;;;12.58;32.41;98475.38;4393736;32;20141;-93
2024/01/15 09:25:19;;;;;;;28.25;22.30;;;;;;;12.56;32.96;98478.19;4393767;32;20169;-92
2024/01/15 09:27:48;;;;;;;27.92;21.77;;;;;;;12.25;33.05;98475.09;4380155;32;20154;-92
2024/01/15 09:30:18;;;;;;;29.70;22.70;;;;;;;12.14;33.25;98468.16;4394170;32;20164;-92
2024/01/15 09:32:47;;;;;;;27.13;20.60;;;;;;;12.17;33.45;98464.38;4380419;32;20538;-92
2024/01/15 09:35:16;;;;;;;27.10;20.52;;;;;;;12.48;32.97;98464.84;4394399;32;20176;-92
2024/01/15 09:37:46;;;;;;;23.95;18.65;;;;;;;12.51;32.38;98461.84;4394048;32;20177;-92
2024/01/15 09:40:21;;;;;;;25.12;19.52;;;;;;;12.95;32.21;98456.53;4394058;32;20422;-92
2024/01/15 09:42:51;;;;;;;23.12;19.52;;;;;;;12.70;31.95;98459.00;4394616;32;20158;-92
2024/01/15 09:45:21;;;;;;;28.70;18.17;;;;;;;12.35;32.65;98445.78;4394302;32;20137;-92
2024/01/15 09:47:51;;;;;;;20.75;16.67;;;;;;;13.11;31.78;98447.84;4378928;32;20172;-92
2024/01/15 09:50:20;;;;;;;23.20;17.52;;;;;;;13.13;31.95;98440.50;4402921;32;20137;-91
2024/01/15 09:52:51;;;;;;;23.98;17.35;;;;;;;13.18;31.76;98424.91;4408796;32;20161;-92
2024/01/15 09:55:22;;;;;;;28.85;17.85;;;;;;;13.18;31.48;98423.06;4395011;32;20427;-90
2024/01/15 09:57:51;;;;;;;22.83;17.37;;;;;;;13.24;31.73;98417.16;4394907;32;20463;-92
2024/01/15 10:00:22;;;;;;;22.48;15.63;;;;;;;13.17;31.52;98418.75;4409133;32;20125;-92
2024/01/15 10:02:51;;;;;;;22.13;16.25;;;;;;;13.49;30.91;98420.75;4408770;32;20161;-92
2024/01/15 10:05:24;;;;;;;18.65;11.80;;;;;;;13.66;30.69;98415.47;4408764;32;20154;-91
2024/01/15 10:08:01;;;;;;;17.05;12.35;;;;;;;13.60;29.86;98414.31;4408415;32;20145;-91
2024/01/15 10:10:32;;;;;;;20.45;13.00;;;;;;;13.69;30.15;98405.34;4408805;32;20487;-91
2024/01/15 10:13:03;;;;;;;17.42;11.57;;;;;;;13.86;29.51;98400.91;4408333;32;20425;-92
2024/01/15 10:18:13;;;;;;;12.80;10.80;;;;;;;14.16;28.86;98395.94;4407550;32;20203;-91
2024/01/15 10:20:43;;;;;;;15.02;11.48;;;;;;;14.32;28.42;98405.78;4408314;32;20156;-91
2024/01/15 10:23:12;;;;;;;16.65;11.00;;;;;;;14.50;27.81;98393.97;4408131;32;20137;-92
2024/01/15 10:25:44;;;;;;;34.97;21.10;;;;;;;14.60;28.10;98385.78;4394282;32;20217;-91
2024/01/15 10:28:14;;;;;;;33.22;21.33;;;;;;;14.52;27.97;98381.31;4408073;32;20137;-91
2024/01/15 10:30:43;;;;;;;13.77;10.07;;;;;;;14.69;27.92;98381.28;4394537;32;20133;-91
2024/01/15 10:33:15;;;;;;;9.88;7.68;;;;;;;14.64;27.01;98372.97;4407260;32;20126;-91
2024/01/15 10:35:45;;;;;;;;;;;;;;;14.66;26.74;98370.97;4407642;32;20155;-91
2024/01/15 10:38:14;;;;;;;15.90;11.27;;;;;;;14.46;27.22;98370.47;4406922;32;20040;-91
2024/01/15 10:40:45;;;;;;;13.93;8.35;;;;;;;14.51;27.74;98371.66;4393324;32;20152;-91
2024/01/15 10:43:14;;;;;;;12.70;8.93;;;;;;;14.65;26.90;98377.28;4407076;32;20148;-92
2024/01/15 10:45:44;;;;;;;11.88;8.23;;;;;;;14.40;27.62;98377.28;4407242;32;20529;-91
2024/01/15 10:48:14;;;;;;;12.32;8.45;;;;;;;14.39;27.03;98377.47;4393589;32;20152;-91
2024/01/15 10:50:44;;;;;;;11.00;7.57;;;;;;;13.97;27.91;98376.59;4408448;32;20160;-91
2024/01/15 10:53:16;;;;;;;13.55;8.90;;;;;;;13.95;28.25;98373.28;4408269;32;20161;-91
2024/01/15 10:55:48;;;;;;;11.05;8.00;;;;;;;14.05;28.23;98372.28;4408359;32;20153;-91
2024/01/15 10:58:19;;;;;;;;;;;;;;;14.21;27.96;98369.63;4408413;32;20193;-90
2024/01/15 11:00:49;;;;;;;15.40;10.90;;;;;;;14.06;27.87;98364.16;4408376;32;20020;-90
2024/01/15 11:03:25;;;;;;;9.80;7.25;;;;;;;14.28;27.71;98360.81;4409725;32;20153;-91
2024/01/15 11:05:55;;;;;;;11.15;8.23;;;;;;;14.23;27.63;98375.63;4409235;32;20168;-91
2024/01/15 11:08:26;;;;;;;11.60;7.25;;;;;;;14.05;27.79;98370.47;4394533;32;20464;-91
2024/01/15 11:11:07;;;;;;;11.27;7.53;;;;;;;13.80;27.93;98364.28;4399052;32;20438;-91
2024/01/15 11:13:45;;;;;;;12.18;7.25;;;;;;;13.43;28.64;98373.53;4396361;32;20145;-91
2024/01/15 11:16:28;;;;;;;10.45;6.80;;;;;;;13.10;29.24;98371.69;4394886;32;20153;-91
2024/01/15 11:19:08;;;;;;;12.02;8.27;;;;;;;13.13;29.38;98366.06;4408058;32;20181;-91
2024/01/15 11:21:45;;;;;;;16.30;7.12;;;;;;;13.19;29.52;98362.78;4408125;32;20156;-91
2024/01/15 11:24:36;;;;;;;12.25;7.07;;;;;;;13.20;29.54;98364.44;4408897;32;20145;-92
2024/01/15 11:27:09;;;;;;;14.57;7.55;;;;;;;13.46;29.03;98364.38;4407956;32;20161;-91
2024/01/15 11:29:39;;;;;;;12.10;8.27;;;;;;;12.77;29.69;98366.22;4409899;32;20564;-91
2024/01/15 11:32:24;;;;;;;11.12;7.10;;;;;;;13.61;29.02;98365.41;4410305;32;20149;-90
2024/01/15 11:35:01;;;;;;;9.10;7.45;;;;;;;13.31;29.23;98366.84;4409603;32;20178;-90
2024/01/15 11:37:57;;;;;;;10.38;8.43;;;;;;;12.99;29.33;98351.56;4396113;32;20160;-90
2024/01/15 11:40:42;;;;;;;13.30;8.48;;;;;;;12.68;29.83;98343.25;4408123;32;20141;-89
2024/01/15 11:43:16;;;;;;;13.38;7.85;;;;;;;12.10;30.83;98357.94;4408053;32;20141;-91